Accueil
METAR-TAF:

METAR-TAF

Aéroports :

Aéroport international de Greenville-Spartanburg

Greer, Caroline du Sud, États-Unis

latitude: 34-53-02N, longitude: 082-13-15W, altitude: 296 m

Observation

Le bulletin a été fait il y a 1 heure et 10 minutes, à 21:53 UTC
Vent calme
Température 14°C
Humidité 44%
Pression 1022 hPa
Visibilité: 16.1 km
Ciel clair

METAR: KGSP 202153Z 00000KT 10SM CLR 14/02 A3017 RMK AO2 SLP215 T01440022

Heure: 18:03 (23:03 UTC)

Prévision

Le bulletin a été fait il y a 5 heures et 22 minutes, à 17:41 UTC
Prévision valable du 20 à 18 UTC au 21 à 18 UTC
Vent 4 kt de direction variable
Visibilité: 10 km
Quelques nuages à une hauteur de 25000 ft
A partir de 21 à 1600 UTC
Vent 5 kt de sud
Visibilité: 10 km
Nuages épars à une hauteur de 20000 ft

TAF: KGSP 201741Z 2018/2118 VRB04KT P6SM FEW250 FM211600 19005KT P6SM SCT200

Observations et prévisions météorologiques de plus de 4000 aéroports (messages METAR et TAF).

Les stations disponibles sont représentées par des disques jaunes et rouges sur la carte.

Passer la souris dessus pour voir le nom de la station.

Cliquer dessus pour voir les observations et prévisions météorologiques.

Pour changer de carte: cliquez sur les boutons verts avec une croix noire pour zoomer, sur le bouton vert avec un tiret pour effectuer un zoom arrière, ou sur les flèches vertes pour les cartes adjacentes.


METAR-TAF: